sensor_id;sensor_type;location;lat;lon;timestamp;pressure;altitude;pressure_sealevel;temperature;humidity
65131;BME280;51709;54.912;8.316;2023-01-28T00:04:32;102893.59;;;-1.44;72.53
65131;BME280;51709;54.912;8.316;2023-01-28T00:09:53;102903.56;;;-1.45;72.70
65131;BME280;51709;54.912;8.316;2023-01-28T00:15:13;102907.34;;;-1.52;72.58
65131;BME280;51709;54.912;8.316;2023-01-28T00:20:35;102897.88;;;-1.56;72.83
65131;BME280;51709;54.912;8.316;2023-01-28T00:26:00;102902.91;;;-1.56;72.88
65131;BME280;51709;54.912;8.316;2023-01-28T00:31:24;102909.06;;;-1.51;72.49
65131;BME280;51709;54.912;8.316;2023-01-28T00:36:45;102917.13;;;-1.43;72.59
65131;BME280;51709;54.912;8.316;2023-01-28T00:42:13;102912.84;;;-1.31;71.99
65131;BME280;51709;54.912;8.316;2023-01-28T00:47:34;102903.16;;;-1.25;71.70
65131;BME280;51709;54.912;8.316;2023-01-28T00:52:55;102902.75;;;-1.17;71.38
65131;BME280;51709;54.912;8.316;2023-01-28T00:58:17;102909.13;;;-1.22;71.24
65131;BME280;51709;54.912;8.316;2023-01-28T01:03:38;102916.59;;;-1.24;71.22
65131;BME280;51709;54.912;8.316;2023-01-28T01:08:59;102911.78;;;-1.34;71.37
65131;BME280;51709;54.912;8.316;2023-01-28T01:14:19;102893.47;;;-1.45;71.83
65131;BME280;51709;54.912;8.316;2023-01-28T01:19:40;102884.09;;;-1.48;71.86
65131;BME280;51709;54.912;8.316;2023-01-28T01:25:03;102876.94;;;-1.42;71.99
65131;BME280;51709;54.912;8.316;2023-01-28T01:30:24;102882.03;;;-1.27;71.35
65131;BME280;51709;54.912;8.316;2023-01-28T01:35:52;102877.84;;;-1.26;71.38
65131;BME280;51709;54.912;8.316;2023-01-28T01:41:28;102879.88;;;-1.20;71.38
65131;BME280;51709;54.912;8.316;2023-01-28T01:46:50;102875.75;;;-1.05;71.18
65131;BME280;51709;54.912;8.316;2023-01-28T01:52:15;102877.97;;;-0.96;70.83
65131;BME280;51709;54.912;8.316;2023-01-28T01:57:37;102870.75;;;-0.90;70.90
65131;BME280;51709;54.912;8.316;2023-01-28T02:02:58;102866.75;;;-0.86;70.84
65131;BME280;51709;54.912;8.316;2023-01-28T02:08:19;102857.47;;;-0.87;71.34
65131;BME280;51709;54.912;8.316;2023-01-28T02:13:46;102853.38;;;-0.85;71.47
65131;BME280;51709;54.912;8.316;2023-01-28T02:19:10;102850.81;;;-0.72;71.24
65131;BME280;51709;54.912;8.316;2023-01-28T02:24:50;102841.88;;;-0.67;71.41
65131;BME280;51709;54.912;8.316;2023-01-28T02:30:24;102833.34;;;-0.69;71.45
65131;BME280;51709;54.912;8.316;2023-01-28T02:35:52;102833.41;;;-0.67;71.36
65131;BME280;51709;54.912;8.316;2023-01-28T02:41:21;102845.25;;;-0.66;71.74
65131;BME280;51709;54.912;8.316;2023-01-28T02:46:44;102848.41;;;-0.55;71.43
65131;BME280;51709;54.912;8.316;2023-01-28T02:52:33;102850.41;;;-0.50;71.53
65131;BME280;51709;54.912;8.316;2023-01-28T02:58:31;102856.13;;;-0.52;71.49
65131;BME280;51709;54.912;8.316;2023-01-28T03:03:58;102852.28;;;-0.45;71.41
65131;BME280;51709;54.912;8.316;2023-01-28T03:09:22;102840.19;;;-0.51;71.76
65131;BME280;51709;54.912;8.316;2023-01-28T03:14:55;102831.78;;;-0.52;71.95
65131;BME280;51709;54.912;8.316;2023-01-28T03:26:29;102839.69;;;-0.45;72.10
65131;BME280;51709;54.912;8.316;2023-01-28T03:32:10;102830.13;;;-0.36;71.93
65131;BME280;51709;54.912;8.316;2023-01-28T03:37:50;102822.03;;;-0.30;71.84
65131;BME280;51709;54.912;8.316;2023-01-28T03:43:15;102816.97;;;-0.16;71.78
65131;BME280;51709;54.912;8.316;2023-01-28T03:48:39;102808.50;;;-0.16;71.89
65131;BME280;51709;54.912;8.316;2023-01-28T03:54:02;102792.06;;;-0.09;72.12
65131;BME280;51709;54.912;8.316;2023-01-28T03:59:24;102789.94;;;-0.02;71.69
65131;BME280;51709;54.912;8.316;2023-01-28T04:04:45;102801.97;;;0.03;71.82
65131;BME280;51709;54.912;8.316;2023-01-28T04:10:07;102792.44;;;0.13;71.77
65131;BME280;51709;54.912;8.316;2023-01-28T04:15:50;102775.41;;;0.26;71.97
65131;BME280;51709;54.912;8.316;2023-01-28T04:21:12;102776.22;;;0.41;71.41
65131;BME280;51709;54.912;8.316;2023-01-28T04:26:32;102793.22;;;0.60;71.28
65131;BME280;51709;54.912;8.316;2023-01-28T04:31:53;102797.41;;;0.76;71.50
65131;BME280;51709;54.912;8.316;2023-01-28T04:37:50;102776.84;;;0.87;71.70
65131;BME280;51709;54.912;8.316;2023-01-28T04:43:24;102783.72;;;0.89;71.87
65131;BME280;51709;54.912;8.316;2023-01-28T04:49:06;102757.31;;;1.01;72.09
65131;BME280;51709;54.912;8.316;2023-01-28T04:54:34;102769.47;;;1.08;72.10
65131;BME280;51709;54.912;8.316;2023-01-28T04:59:57;102773.75;;;1.09;72.27
65131;BME280;51709;54.912;8.316;2023-01-28T05:05:17;102745.19;;;1.12;72.63
65131;BME280;51709;54.912;8.316;2023-01-28T05:10:51;102766.53;;;1.17;72.63
65131;BME280;51709;54.912;8.316;2023-01-28T05:16:11;102761.69;;;1.21;72.74
65131;BME280;51709;54.912;8.316;2023-01-28T05:21:32;102743.34;;;1.26;72.90
65131;BME280;51709;54.912;8.316;2023-01-28T05:26:57;102752.81;;;1.30;72.82
65131;BME280;51709;54.912;8.316;2023-01-28T05:32:17;102750.56;;;1.36;72.93
65131;BME280;51709;54.912;8.316;2023-01-28T05:37:38;102738.59;;;1.50;72.72
65131;BME280;51709;54.912;8.316;2023-01-28T05:42:59;102733.75;;;1.54;72.65
65131;BME280;51709;54.912;8.316;2023-01-28T05:48:40;102747.47;;;1.60;72.60
65131;BME280;51709;54.912;8.316;2023-01-28T05:54:01;102744.66;;;1.72;72.44
65131;BME280;51709;54.912;8.316;2023-01-28T05:59:23;102749.94;;;1.76;72.86
65131;BME280;51709;54.912;8.316;2023-01-28T06:04:47;102731.09;;;1.89;72.78
65131;BME280;51709;54.912;8.316;2023-01-28T06:10:09;102726.31;;;1.95;72.78
65131;BME280;51709;54.912;8.316;2023-01-28T06:15:31;102745.34;;;2.05;73.04
65131;BME280;51709;54.912;8.316;2023-01-28T06:21:11;102739.91;;;2.15;73.00
65131;BME280;51709;54.912;8.316;2023-01-28T06:26:31;102741.03;;;2.22;73.02
65131;BME280;51709;54.912;8.316;2023-01-28T06:31:52;102742.97;;;2.28;73.28
65131;BME280;51709;54.912;8.316;2023-01-28T06:37:14;102744.38;;;2.41;73.19
65131;BME280;51709;54.912;8.316;2023-01-28T06:42:34;102745.63;;;2.51;73.12
65131;BME280;51709;54.912;8.316;2023-01-28T06:47:55;102741.56;;;2.54;73.41
65131;BME280;51709;54.912;8.316;2023-01-28T06:53:17;102752.03;;;2.62;73.53
65131;BME280;51709;54.912;8.316;2023-01-28T06:58:38;102735.34;;;2.67;73.54
65131;BME280;51709;54.912;8.316;2023-01-28T07:03:59;102739.75;;;2.71;73.77
65131;BME280;51709;54.912;8.316;2023-01-28T07:09:20;102760.38;;;2.79;73.66
65131;BME280;51709;54.912;8.316;2023-01-28T07:14:41;102760.56;;;2.84;73.60
65131;BME280;51709;54.912;8.316;2023-01-28T07:20:01;102765.63;;;2.84;73.89
65131;BME280;51709;54.912;8.316;2023-01-28T07:25:22;102775.16;;;2.89;73.99
65131;BME280;51709;54.912;8.316;2023-01-28T07:30:42;102771.88;;;2.92;74.14
65131;BME280;51709;54.912;8.316;2023-01-28T07:36:03;102766.28;;;2.99;73.96
65131;BME280;51709;54.912;8.316;2023-01-28T07:41:24;102771.72;;;3.08;74.09
65131;BME280;51709;54.912;8.316;2023-01-28T07:46:45;102760.25;;;3.18;74.31
65131;BME280;51709;54.912;8.316;2023-01-28T07:52:09;102754.84;;;3.30;73.77
65131;BME280;51709;54.912;8.316;2023-01-28T07:57:30;102770.59;;;3.44;73.69
65131;BME280;51709;54.912;8.316;2023-01-28T08:02:56;102769.19;;;3.51;73.38
65131;BME280;51709;54.912;8.316;2023-01-28T08:08:17;102762.84;;;3.62;73.40
65131;BME280;51709;54.912;8.316;2023-01-28T08:13:38;102785.03;;;3.66;73.67
65131;BME280;51709;54.912;8.316;2023-01-28T08:18:58;102779.94;;;3.66;73.83
65131;BME280;51709;54.912;8.316;2023-01-28T08:24:19;102771.63;;;3.70;73.96
65131;BME280;51709;54.912;8.316;2023-01-28T08:29:40;102772.50;;;3.71;74.24
65131;BME280;51709;54.912;8.316;2023-01-28T08:35:02;102769.78;;;3.66;74.40
65131;BME280;51709;54.912;8.316;2023-01-28T08:40:24;102759.22;;;3.78;74.52
65131;BME280;51709;54.912;8.316;2023-01-28T08:53:36;102769.84;;;3.91;74.49
65131;BME280;51709;54.912;8.316;2023-01-28T08:58:56;102781.19;;;3.99;74.45
65131;BME280;51709;54.912;8.316;2023-01-28T09:04:17;102771.13;;;4.02;74.41
65131;BME280;51709;54.912;8.316;2023-01-28T09:09:38;102765.31;;;4.05;74.73
65131;BME280;51709;54.912;8.316;2023-01-28T09:14:59;102763.16;;;4.15;74.60
65131;BME280;51709;54.912;8.316;2023-01-28T09:28:06;102725.84;;;4.63;73.56
65131;BME280;51709;54.912;8.316;2023-01-28T09:33:26;102714.34;;;5.00;72.73
65131;BME280;51709;54.912;8.316;2023-01-28T09:38:47;102720.31;;;5.28;72.38
65131;BME280;51709;54.912;8.316;2023-01-28T09:49:47;102724.16;;;5.70;71.93
65131;BME280;51709;54.912;8.316;2023-01-28T09:55:21;102740.31;;;5.99;71.52
65131;BME280;51709;54.912;8.316;2023-01-28T10:00:58;102714.41;;;6.16;71.42
65131;BME280;51709;54.912;8.316;2023-01-28T10:12:19;102736.56;;;5.61;73.60
65131;BME280;51709;54.912;8.316;2023-01-28T10:17:50;102733.91;;;5.56;73.75
65131;BME280;51709;54.912;8.316;2023-01-28T10:23:40;102731.69;;;5.67;73.42
65131;BME280;51709;54.912;8.316;2023-01-28T10:29:12;102714.97;;;5.77;73.48
65131;BME280;51709;54.912;8.316;2023-01-28T10:34:34;102700.38;;;6.00;72.80
65131;BME280;51709;54.912;8.316;2023-01-28T10:39:56;102692.53;;;6.56;71.84
65131;BME280;51709;54.912;8.316;2023-01-28T10:45:30;102700.50;;;7.04;70.63
65131;BME280;51709;54.912;8.316;2023-01-28T10:53:04;102694.75;;;6.77;71.55
65131;BME280;51709;54.912;8.316;2023-01-28T10:59:40;102707.47;;;6.42;72.87
65131;BME280;51709;54.912;8.316;2023-01-28T11:05:36;102706.25;;;6.28;73.59
65131;BME280;51709;54.912;8.316;2023-01-28T11:10:57;102688.00;;;6.12;73.97
65131;BME280;51709;54.912;8.316;2023-01-28T11:16:18;102665.28;;;6.22;73.80
65131;BME280;51709;54.912;8.316;2023-01-28T11:21:40;102649.56;;;6.38;73.39
65131;BME280;51709;54.912;8.316;2023-01-28T11:27:14;102652.56;;;6.55;72.91
65131;BME280;51709;54.912;8.316;2023-01-28T11:32:36;102657.25;;;6.73;72.75
65131;BME280;51709;54.912;8.316;2023-01-28T11:37:58;102649.09;;;6.53;73.33
65131;BME280;51709;54.912;8.316;2023-01-28T11:43:21;102659.41;;;6.24;74.23
65131;BME280;51709;54.912;8.316;2023-01-28T11:49:08;102653.91;;;6.09;74.66
65131;BME280;51709;54.912;8.316;2023-01-28T11:55:17;102662.16;;;6.00;74.64
65131;BME280;51709;54.912;8.316;2023-01-28T12:01:01;102665.50;;;5.99;74.61
65131;BME280;51709;54.912;8.316;2023-01-28T12:06:45;102657.34;;;5.80;75.42
65131;BME280;51709;54.912;8.316;2023-01-28T12:12:20;102649.63;;;5.79;74.88
65131;BME280;51709;54.912;8.316;2023-01-28T12:18:15;102634.19;;;5.73;75.17
65131;BME280;51709;54.912;8.316;2023-01-28T12:24:00;102634.34;;;5.79;74.96
65131;BME280;51709;54.912;8.316;2023-01-28T12:29:46;102615.44;;;5.70;75.14
65131;BME280;51709;54.912;8.316;2023-01-28T12:35:19;102634.09;;;5.69;75.18
65131;BME280;51709;54.912;8.316;2023-01-28T12:41:15;102632.13;;;5.59;75.61
65131;BME280;51709;54.912;8.316;2023-01-28T12:46:44;102596.47;;;5.59;75.61
65131;BME280;51709;54.912;8.316;2023-01-28T12:52:15;102586.63;;;5.71;75.21
65131;BME280;51709;54.912;8.316;2023-01-28T12:57:38;102561.22;;;5.75;75.21
65131;BME280;51709;54.912;8.316;2023-01-28T13:03:10;102564.47;;;5.99;74.49
65131;BME280;51709;54.912;8.316;2023-01-28T13:08:34;102591.78;;;6.05;74.41
65131;BME280;51709;54.912;8.316;2023-01-28T13:13:55;102586.38;;;5.94;74.75
65131;BME280;51709;54.912;8.316;2023-01-28T13:24:40;102567.81;;;5.98;74.93
65131;BME280;51709;54.912;8.316;2023-01-28T13:30:05;102572.69;;;5.91;75.25
65131;BME280;51709;54.912;8.316;2023-01-28T13:35:41;102577.69;;;5.88;75.46
65131;BME280;51709;54.912;8.316;2023-01-28T13:41:03;102576.06;;;5.90;75.33
65131;BME280;51709;54.912;8.316;2023-01-28T13:46:28;102566.56;;;5.84;75.69
65131;BME280;51709;54.912;8.316;2023-01-28T13:52:16;102574.91;;;5.78;75.85
65131;BME280;51709;54.912;8.316;2023-01-28T13:57:42;102583.34;;;5.76;75.92
65131;BME280;51709;54.912;8.316;2023-01-28T14:14:59;102574.78;;;5.74;76.28
65131;BME280;51709;54.912;8.316;2023-01-28T14:20:35;102576.31;;;5.67;76.57
65131;BME280;51709;54.912;8.316;2023-01-28T14:26:15;102557.78;;;5.73;76.47
65131;BME280;51709;54.912;8.316;2023-01-28T14:31:39;102554.53;;;5.78;76.66
65131;BME280;51709;54.912;8.316;2023-01-28T14:37:04;102520.78;;;5.87;76.41
65131;BME280;51709;54.912;8.316;2023-01-28T14:42:44;102529.41;;;5.92;76.23
65131;BME280;51709;54.912;8.316;2023-01-28T14:59:19;102558.69;;;5.75;77.15
65131;BME280;51709;54.912;8.316;2023-01-28T15:04:41;102555.94;;;5.67;77.33
65131;BME280;51709;54.912;8.316;2023-01-28T15:10:04;102541.47;;;5.66;77.55
65131;BME280;51709;54.912;8.316;2023-01-28T15:15:33;102533.69;;;5.61;77.85
65131;BME280;51709;54.912;8.316;2023-01-28T15:20:56;102543.81;;;5.60;77.94
65131;BME280;51709;54.912;8.316;2023-01-28T15:26:21;102517.66;;;5.65;77.99
65131;BME280;51709;54.912;8.316;2023-01-28T15:31:47;102498.75;;;5.55;78.13
65131;BME280;51709;54.912;8.316;2023-01-28T15:37:09;102523.34;;;5.55;78.19
65131;BME280;51709;54.912;8.316;2023-01-28T15:42:30;102516.44;;;5.51;78.60
65131;BME280;51709;54.912;8.316;2023-01-28T15:47:52;102511.06;;;5.42;78.91
65131;BME280;51709;54.912;8.316;2023-01-28T15:53:22;102514.38;;;5.37;79.16
65131;BME280;51709;54.912;8.316;2023-01-28T15:58:42;102499.03;;;5.36;79.32
65131;BME280;51709;54.912;8.316;2023-01-28T16:04:05;102502.47;;;5.36;79.43
65131;BME280;51709;54.912;8.316;2023-01-28T16:09:28;102499.09;;;5.37;79.46
65131;BME280;51709;54.912;8.316;2023-01-28T16:14:53;102510.09;;;5.36;79.61
65131;BME280;51709;54.912;8.316;2023-01-28T16:20:23;102533.72;;;5.31;79.93
65131;BME280;51709;54.912;8.316;2023-01-28T16:25:44;102545.53;;;5.29;80.08
65131;BME280;51709;54.912;8.316;2023-01-28T16:31:08;102549.09;;;5.34;80.40
65131;BME280;51709;54.912;8.316;2023-01-28T16:36:30;102558.47;;;5.36;80.58
65131;BME280;51709;54.912;8.316;2023-01-28T16:41:50;102557.66;;;5.37;81.21
65131;BME280;51709;54.912;8.316;2023-01-28T16:47:11;102551.75;;;5.38;81.83
65131;BME280;51709;54.912;8.316;2023-01-28T16:52:31;102563.72;;;5.43;82.20
65131;BME280;51709;54.912;8.316;2023-01-28T16:57:54;102550.16;;;5.42;82.36
65131;BME280;51709;54.912;8.316;2023-01-28T17:03:15;102567.09;;;5.42;82.46
65131;BME280;51709;54.912;8.316;2023-01-28T17:08:36;102562.84;;;5.40;82.58
65131;BME280;51709;54.912;8.316;2023-01-28T17:13:58;102557.91;;;5.47;82.38
65131;BME280;51709;54.912;8.316;2023-01-28T17:19:19;102563.16;;;5.53;82.25
65131;BME280;51709;54.912;8.316;2023-01-28T17:24:39;102555.59;;;5.54;82.06
65131;BME280;51709;54.912;8.316;2023-01-28T17:30:00;102559.91;;;5.57;82.17
65131;BME280;51709;54.912;8.316;2023-01-28T17:35:21;102577.09;;;5.64;81.69
65131;BME280;51709;54.912;8.316;2023-01-28T17:40:41;102584.97;;;5.74;81.44
65131;BME280;51709;54.912;8.316;2023-01-28T17:46:10;102586.72;;;5.75;81.05
65131;BME280;51709;54.912;8.316;2023-01-28T17:51:31;102588.63;;;5.83;80.88
65131;BME280;51709;54.912;8.316;2023-01-28T17:56:52;102579.41;;;5.87;80.84
65131;BME280;51709;54.912;8.316;2023-01-28T18:02:13;102580.13;;;5.83;80.93
65131;BME280;51709;54.912;8.316;2023-01-28T18:07:34;102578.97;;;5.71;81.37
65131;BME280;51709;54.912;8.316;2023-01-28T18:12:55;102583.06;;;5.66;81.59
65131;BME280;51709;54.912;8.316;2023-01-28T18:18:15;102583.03;;;5.65;81.64
65131;BME280;51709;54.912;8.316;2023-01-28T18:23:36;102586.03;;;5.50;81.97
65131;BME280;51709;54.912;8.316;2023-01-28T18:28:57;102594.81;;;5.31;82.40
65131;BME280;51709;54.912;8.316;2023-01-28T18:34:18;102580.22;;;5.25;82.44
65131;BME280;51709;54.912;8.316;2023-01-28T18:39:39;102576.53;;;5.15;82.71
65131;BME280;51709;54.912;8.316;2023-01-28T18:45:03;102567.13;;;5.13;82.75
65131;BME280;51709;54.912;8.316;2023-01-28T18:50:24;102561.03;;;5.07;82.99
65131;BME280;51709;54.912;8.316;2023-01-28T18:55:44;102567.69;;;5.02;83.22
65131;BME280;51709;54.912;8.316;2023-01-28T19:01:09;102565.81;;;4.97;83.52
65131;BME280;51709;54.912;8.316;2023-01-28T19:06:30;102570.09;;;4.98;83.37
65131;BME280;51709;54.912;8.316;2023-01-28T19:11:51;102567.56;;;4.99;83.55
65131;BME280;51709;54.912;8.316;2023-01-28T19:17:11;102554.75;;;4.96;83.46
65131;BME280;51709;54.912;8.316;2023-01-28T19:22:32;102560.66;;;4.95;83.64
65131;BME280;51709;54.912;8.316;2023-01-28T19:27:53;102549.66;;;4.96;83.68
65131;BME280;51709;54.912;8.316;2023-01-28T19:33:14;102549.63;;;4.94;83.66
65131;BME280;51709;54.912;8.316;2023-01-28T19:38:35;102545.47;;;4.97;83.69
65131;BME280;51709;54.912;8.316;2023-01-28T19:43:56;102529.25;;;4.93;83.66
65131;BME280;51709;54.912;8.316;2023-01-28T19:49:17;102531.69;;;4.90;83.75
65131;BME280;51709;54.912;8.316;2023-01-28T19:54:37;102524.78;;;4.86;83.84
65131;BME280;51709;54.912;8.316;2023-01-28T19:59:58;102522.13;;;4.83;83.88
65131;BME280;51709;54.912;8.316;2023-01-28T20:05:19;102521.28;;;4.82;83.93
65131;BME280;51709;54.912;8.316;2023-01-28T20:10:40;102527.28;;;4.84;83.92
65131;BME280;51709;54.912;8.316;2023-01-28T20:16:06;102533.19;;;4.83;84.08
65131;BME280;51709;54.912;8.316;2023-01-28T20:21:29;102528.94;;;4.84;83.98
65131;BME280;51709;54.912;8.316;2023-01-28T20:26:51;102511.94;;;4.83;83.93
65131;BME280;51709;54.912;8.316;2023-01-28T20:32:11;102518.63;;;4.79;84.08
65131;BME280;51709;54.912;8.316;2023-01-28T20:37:38;102515.97;;;4.74;84.09
65131;BME280;51709;54.912;8.316;2023-01-28T20:43:00;102516.84;;;4.75;84.02
65131;BME280;51709;54.912;8.316;2023-01-28T20:48:20;102522.66;;;4.72;84.24
65131;BME280;51709;54.912;8.316;2023-01-28T20:53:41;102515.00;;;4.71;84.19
65131;BME280;51709;54.912;8.316;2023-01-28T20:59:04;102509.88;;;4.69;84.36
65131;BME280;51709;54.912;8.316;2023-01-28T21:04:25;102504.06;;;4.73;84.41
65131;BME280;51709;54.912;8.316;2023-01-28T21:09:45;102500.78;;;4.77;84.25
65131;BME280;51709;54.912;8.316;2023-01-28T21:15:06;102493.94;;;4.75;84.38
65131;BME280;51709;54.912;8.316;2023-01-28T21:20:29;102499.88;;;4.75;84.35
65131;BME280;51709;54.912;8.316;2023-01-28T21:25:50;102492.16;;;4.72;84.35
65131;BME280;51709;54.912;8.316;2023-01-28T21:31:17;102486.22;;;4.72;84.51
65131;BME280;51709;54.912;8.316;2023-01-28T21:36:38;102487.88;;;4.71;84.36
65131;BME280;51709;54.912;8.316;2023-01-28T21:41:59;102487.06;;;4.72;84.29
65131;BME280;51709;54.912;8.316;2023-01-28T21:47:20;102483.13;;;4.82;84.21
65131;BME280;51709;54.912;8.316;2023-01-28T21:52:47;102480.81;;;4.90;83.97
65131;BME280;51709;54.912;8.316;2023-01-28T21:58:07;102487.78;;;4.97;83.80
65131;BME280;51709;54.912;8.316;2023-01-28T22:03:48;102480.97;;;4.96;83.84
65131;BME280;51709;54.912;8.316;2023-01-28T22:09:09;102488.53;;;4.93;84.08
65131;BME280;51709;54.912;8.316;2023-01-28T22:14:33;102483.34;;;4.90;84.23
65131;BME280;51709;54.912;8.316;2023-01-28T22:19:54;102487.28;;;4.80;84.33
65131;BME280;51709;54.912;8.316;2023-01-28T22:25:15;102487.97;;;4.74;84.49
65131;BME280;51709;54.912;8.316;2023-01-28T22:30:36;102494.69;;;4.72;84.51
65131;BME280;51709;54.912;8.316;2023-01-28T22:35:56;102498.91;;;4.70;84.71
65131;BME280;51709;54.912;8.316;2023-01-28T22:41:19;102488.56;;;4.66;84.71
65131;BME280;51709;54.912;8.316;2023-01-28T22:46:43;102495.44;;;4.68;84.61
65131;BME280;51709;54.912;8.316;2023-01-28T22:52:04;102487.81;;;4.68;84.76
65131;BME280;51709;54.912;8.316;2023-01-28T22:57:25;102474.19;;;4.66;84.81
65131;BME280;51709;54.912;8.316;2023-01-28T23:02:45;102464.84;;;4.67;84.92
65131;BME280;51709;54.912;8.316;2023-01-28T23:08:06;102446.25;;;4.68;84.80
65131;BME280;51709;54.912;8.316;2023-01-28T23:13:31;102451.41;;;4.69;84.84
65131;BME280;51709;54.912;8.316;2023-01-28T23:19:12;102451.31;;;4.68;84.90
65131;BME280;51709;54.912;8.316;2023-01-28T23:24:51;102466.56;;;4.66;84.82
65131;BME280;51709;54.912;8.316;2023-01-28T23:30:11;102451.28;;;4.66;84.92
65131;BME280;51709;54.912;8.316;2023-01-28T23:35:33;102446.22;;;4.66;84.96
65131;BME280;51709;54.912;8.316;2023-01-28T23:40:54;102443.56;;;4.63;84.85
65131;BME280;51709;54.912;8.316;2023-01-28T23:46:14;102428.28;;;4.61;84.90
65131;BME280;51709;54.912;8.316;2023-01-28T23:51:36;102429.94;;;4.61;85.08
65131;BME280;51709;54.912;8.316;2023-01-28T23:56:57;102428.19;;;4.58;85.12
